sensor_id;sensor_type;location;lat;lon;timestamp;pressure;altitude;pressure_sealevel;temperature;humidity
73171;BME280;61381;50.118;19.962;2024-03-08T00:04:39;99083.59;;;4.11;76.70
73171;BME280;61381;50.118;19.962;2024-03-08T00:09:39;99084.50;;;3.63;75.52
73171;BME280;61381;50.118;19.962;2024-03-08T00:14:40;99093.94;;;4.79;72.49
73171;BME280;61381;50.118;19.962;2024-03-08T00:19:43;99081.47;;;4.44;72.33
73171;BME280;61381;50.118;19.962;2024-03-08T00:24:44;99079.41;;;4.58;72.55
73171;BME280;61381;50.118;19.962;2024-03-08T00:29:44;99077.00;;;4.80;72.30
73171;BME280;61381;50.118;19.962;2024-03-08T00:34:47;99079.63;;;4.56;71.56
73171;BME280;61381;50.118;19.962;2024-03-08T00:39:48;99073.22;;;3.98;72.82
73171;BME280;61381;50.118;19.962;2024-03-08T00:44:48;99068.91;;;4.87;72.95
73171;BME280;61381;50.118;19.962;2024-03-08T00:49:51;99068.09;;;4.39;71.10
73171;BME280;61381;50.118;19.962;2024-03-08T00:54:51;99061.06;;;3.90;72.66
73171;BME280;61381;50.118;19.962;2024-03-08T00:59:52;99062.56;;;4.40;71.37
73171;BME280;61381;50.118;19.962;2024-03-08T01:04:55;99048.94;;;3.83;73.18
73171;BME280;61381;50.118;19.962;2024-03-08T01:09:55;99051.22;;;4.09;73.84
73171;BME280;61381;50.118;19.962;2024-03-08T01:14:56;99053.84;;;3.98;74.57
73171;BME280;61381;50.118;19.962;2024-03-08T01:19:58;99037.03;;;4.04;74.06
73171;BME280;61381;50.118;19.962;2024-03-08T01:24:59;99037.66;;;3.87;74.03
73171;BME280;61381;50.118;19.962;2024-03-08T01:30:00;99034.03;;;4.00;72.98
73171;BME280;61381;50.118;19.962;2024-03-08T01:35:03;99027.03;;;4.29;72.84
73171;BME280;61381;50.118;19.962;2024-03-08T01:40:05;99025.53;;;4.22;74.21
73171;BME280;61381;50.118;19.962;2024-03-08T01:45:07;99022.31;;;4.43;72.47
73171;BME280;61381;50.118;19.962;2024-03-08T01:50:09;99026.81;;;4.31;72.97
73171;BME280;61381;50.118;19.962;2024-03-08T01:55:10;99022.44;;;3.83;74.63
73171;BME280;61381;50.118;19.962;2024-03-08T02:00:12;99010.09;;;3.65;75.00
73171;BME280;61381;50.118;19.962;2024-03-08T02:05:15;99012.81;;;4.00;74.62
73171;BME280;61381;50.118;19.962;2024-03-08T02:10:16;99006.88;;;3.32;75.27
73171;BME280;61381;50.118;19.962;2024-03-08T02:15:17;98999.56;;;3.58;74.08
73171;BME280;61381;50.118;19.962;2024-03-08T02:20:19;98999.56;;;3.58;74.58
73171;BME280;61381;50.118;19.962;2024-03-08T02:25:22;99006.66;;;3.34;74.57
73171;BME280;61381;50.118;19.962;2024-03-08T02:30:22;98997.34;;;3.43;74.31
73171;BME280;61381;50.118;19.962;2024-03-08T02:35:23;98991.94;;;3.50;74.11
73171;BME280;61381;50.118;19.962;2024-03-08T02:40:26;98998.78;;;4.00;73.13
73171;BME280;61381;50.118;19.962;2024-03-08T02:45:27;98998.09;;;3.62;73.94
73171;BME280;61381;50.118;19.962;2024-03-08T02:50:27;98997.16;;;4.10;73.03
73171;BME280;61381;50.118;19.962;2024-03-08T02:55:30;98993.25;;;4.01;73.57
73171;BME280;61381;50.118;19.962;2024-03-08T03:00:31;98998.44;;;4.43;74.35
73171;BME280;61381;50.118;19.962;2024-03-08T03:05:31;99001.41;;;4.00;72.44
73171;BME280;61381;50.118;19.962;2024-03-08T03:10:34;99004.13;;;3.81;73.63
73171;BME280;61381;50.118;19.962;2024-03-08T03:15:35;98988.00;;;3.71;73.89
73171;BME280;61381;50.118;19.962;2024-03-08T03:20:36;99002.59;;;3.73;74.24
73171;BME280;61381;50.118;19.962;2024-03-08T03:25:38;99006.44;;;3.47;74.34
73171;BME280;61381;50.118;19.962;2024-03-08T03:30:39;99002.25;;;3.70;74.89
73171;BME280;61381;50.118;19.962;2024-03-08T03:35:40;99000.06;;;3.36;74.77
73171;BME280;61381;50.118;19.962;2024-03-08T03:40:42;98995.84;;;3.78;74.47
73171;BME280;61381;50.118;19.962;2024-03-08T03:45:43;98994.72;;;3.43;74.91
73171;BME280;61381;50.118;19.962;2024-03-08T03:50:43;99004.06;;;3.27;76.05
73171;BME280;61381;50.118;19.962;2024-03-08T03:55:46;99002.69;;;3.97;74.46
73171;BME280;61381;50.118;19.962;2024-03-08T04:00:47;98999.47;;;3.95;75.27
73171;BME280;61381;50.118;19.962;2024-03-08T04:05:47;98992.22;;;3.72;74.52
73171;BME280;61381;50.118;19.962;2024-03-08T04:10:50;98990.00;;;3.99;74.47
73171;BME280;61381;50.118;19.962;2024-03-08T04:15:51;98987.72;;;4.03;73.76
73171;BME280;61381;50.118;19.962;2024-03-08T04:20:52;98993.75;;;3.37;76.06
73171;BME280;61381;50.118;19.962;2024-03-08T04:25:54;98997.13;;;3.45;77.09
73171;BME280;61381;50.118;19.962;2024-03-08T04:30:55;98986.59;;;3.38;77.33
73171;BME280;61381;50.118;19.962;2024-03-08T04:35:56;98991.72;;;3.51;75.86
73171;BME280;61381;50.118;19.962;2024-03-08T04:40:59;98990.53;;;3.17;78.03
73171;BME280;61381;50.118;19.962;2024-03-08T04:46:00;98988.13;;;3.15;77.62
73171;BME280;61381;50.118;19.962;2024-03-08T04:51:00;98992.31;;;3.04;78.17
73171;BME280;61381;50.118;19.962;2024-03-08T04:56:03;99000.09;;;3.18;77.60
73171;BME280;61381;50.118;19.962;2024-03-08T05:01:04;98996.47;;;2.82;79.22
73171;BME280;61381;50.118;19.962;2024-03-08T05:06:05;99006.44;;;2.98;77.95
73171;BME280;61381;50.118;19.962;2024-03-08T05:11:07;99019.63;;;3.05;78.59
73171;BME280;61381;50.118;19.962;2024-03-08T05:16:08;98999.50;;;3.34;78.47
73171;BME280;61381;50.118;19.962;2024-03-08T05:21:09;99006.16;;;3.55;78.14
73171;BME280;61381;50.118;19.962;2024-03-08T05:26:11;99003.00;;;3.47;76.84
73171;BME280;61381;50.118;19.962;2024-03-08T05:31:18;99006.59;;;3.22;78.16
73171;BME280;61381;50.118;19.962;2024-03-08T05:36:19;98999.47;;;3.04;78.32
73171;BME280;61381;50.118;19.962;2024-03-08T05:41:21;98991.63;;;3.58;79.01
73171;BME280;61381;50.118;19.962;2024-03-08T05:46:22;99006.03;;;3.62;76.94
73171;BME280;61381;50.118;19.962;2024-03-08T05:51:23;99004.78;;;3.65;75.68
73171;BME280;61381;50.118;19.962;2024-03-08T05:56:25;98998.53;;;3.59;77.53
73171;BME280;61381;50.118;19.962;2024-03-08T06:01:26;99001.56;;;3.32;77.65
73171;BME280;61381;50.118;19.962;2024-03-08T06:06:27;99015.91;;;3.43;77.10
73171;BME280;61381;50.118;19.962;2024-03-08T06:11:29;99017.47;;;3.32;78.71
73171;BME280;61381;50.118;19.962;2024-03-08T06:16:30;99018.47;;;3.31;79.14
73171;BME280;61381;50.118;19.962;2024-03-08T06:21:31;99024.25;;;3.59;77.99
73171;BME280;61381;50.118;19.962;2024-03-08T06:26:33;99010.84;;;3.53;76.19
73171;BME280;61381;50.118;19.962;2024-03-08T06:31:34;99015.34;;;4.07;74.46
73171;BME280;61381;50.118;19.962;2024-03-08T06:36:35;99012.97;;;3.63;78.61
73171;BME280;61381;50.118;19.962;2024-03-08T06:41:37;99017.69;;;4.27;74.54
73171;BME280;61381;50.118;19.962;2024-03-08T06:46:38;99013.81;;;3.75;75.42
73171;BME280;61381;50.118;19.962;2024-03-08T06:51:39;99016.31;;;3.70;74.72
73171;BME280;61381;50.118;19.962;2024-03-08T06:56:41;99017.72;;;3.43;77.09
73171;BME280;61381;50.118;19.962;2024-03-08T07:01:42;99014.94;;;3.68;76.18
73171;BME280;61381;50.118;19.962;2024-03-08T07:06:43;99020.53;;;4.02;73.51
73171;BME280;61381;50.118;19.962;2024-03-08T07:11:45;99027.38;;;4.33;72.94
73171;BME280;61381;50.118;19.962;2024-03-08T07:16:46;99022.06;;;3.67;73.84
73171;BME280;61381;50.118;19.962;2024-03-08T07:21:47;99020.53;;;4.02;73.64
73171;BME280;61381;50.118;19.962;2024-03-08T07:26:49;99029.56;;;4.24;75.07
73171;BME280;61381;50.118;19.962;2024-03-08T07:31:50;99020.59;;;4.49;75.73
73171;BME280;61381;50.118;19.962;2024-03-08T07:36:51;99026.91;;;4.13;69.75
73171;BME280;61381;50.118;19.962;2024-03-08T07:41:53;99027.50;;;4.50;71.00
73171;BME280;61381;50.118;19.962;2024-03-08T07:46:54;99021.69;;;3.94;71.30
73171;BME280;61381;50.118;19.962;2024-03-08T07:51:54;99019.75;;;4.25;71.23
73171;BME280;61381;50.118;19.962;2024-03-08T07:56:57;99017.09;;;4.60;70.17
73171;BME280;61381;50.118;19.962;2024-03-08T08:01:58;99016.59;;;5.40;67.78
73171;BME280;61381;50.118;19.962;2024-03-08T08:06:58;99015.25;;;4.25;67.38
73171;BME280;61381;50.118;19.962;2024-03-08T08:12:01;99003.84;;;4.25;68.93
73171;BME280;61381;50.118;19.962;2024-03-08T08:17:02;99010.06;;;4.54;67.16
73171;BME280;61381;50.118;19.962;2024-03-08T08:22:03;99000.84;;;4.57;68.96
73171;BME280;61381;50.118;19.962;2024-03-08T08:27:05;99021.28;;;5.78;65.42
73171;BME280;61381;50.118;19.962;2024-03-08T08:32:06;99006.81;;;4.76;65.14
73171;BME280;61381;50.118;19.962;2024-03-08T08:37:07;99013.19;;;5.56;64.72
73171;BME280;61381;50.118;19.962;2024-03-08T08:42:09;99011.41;;;5.04;65.36
73171;BME280;61381;50.118;19.962;2024-03-08T08:47:10;99018.09;;;6.44;60.44
73171;BME280;61381;50.118;19.962;2024-03-08T08:52:11;99019.06;;;6.55;60.58
73171;BME280;61381;50.118;19.962;2024-03-08T08:57:13;99027.00;;;6.72;58.61
73171;BME280;61381;50.118;19.962;2024-03-08T09:02:14;99014.28;;;5.89;63.06
73171;BME280;61381;50.118;19.962;2024-03-08T09:07:15;99026.03;;;5.76;60.36
73171;BME280;61381;50.118;19.962;2024-03-08T09:12:17;99014.53;;;5.59;63.74
73171;BME280;61381;50.118;19.962;2024-03-08T09:17:18;99005.44;;;5.26;63.96
73171;BME280;61381;50.118;19.962;2024-03-08T09:22:18;99004.56;;;5.08;64.46
73171;BME280;61381;50.118;19.962;2024-03-08T09:27:21;98999.88;;;4.87;67.15
73171;BME280;61381;50.118;19.962;2024-03-08T09:32:22;98996.81;;;4.78;67.02
73171;BME280;61381;50.118;19.962;2024-03-08T09:37:22;98995.53;;;5.50;63.54
73171;BME280;61381;50.118;19.962;2024-03-08T09:42:25;99001.69;;;6.69;59.17
73171;BME280;61381;50.118;19.962;2024-03-08T09:47:28;99004.31;;;9.08;53.04
73171;BME280;61381;50.118;19.962;2024-03-08T09:52:29;99004.72;;;7.22;55.76
73171;BME280;61381;50.118;19.962;2024-03-08T09:57:32;99004.38;;;9.28;50.75
73171;BME280;61381;50.118;19.962;2024-03-08T10:02:34;98989.09;;;8.55;53.48
73171;BME280;61381;50.118;19.962;2024-03-08T10:07:35;99003.66;;;8.80;52.06
73171;BME280;61381;50.118;19.962;2024-03-08T10:12:37;98994.03;;;8.36;53.30
73171;BME280;61381;50.118;19.962;2024-03-08T10:17:38;98984.94;;;7.95;54.67
73171;BME280;61381;50.118;19.962;2024-03-08T10:22:39;98993.66;;;9.18;51.77
73171;BME280;61381;50.118;19.962;2024-03-08T10:27:41;98983.88;;;8.76;53.24
73171;BME280;61381;50.118;19.962;2024-03-08T10:32:42;98998.94;;;8.98;53.00
73171;BME280;61381;50.118;19.962;2024-03-08T10:37:45;98982.63;;;6.77;58.82
73171;BME280;61381;50.118;19.962;2024-03-08T10:42:52;98970.75;;;6.85;58.50
73171;BME280;61381;50.118;19.962;2024-03-08T10:48:03;98978.66;;;8.49;55.62
73171;BME280;61381;50.118;19.962;2024-03-08T10:53:06;98975.81;;;7.91;53.56
73171;BME280;61381;50.118;19.962;2024-03-08T10:58:08;98966.78;;;7.37;56.68
73171;BME280;61381;50.118;19.962;2024-03-08T11:03:45;98959.34;;;6.90;57.87
73171;BME280;61381;50.118;19.962;2024-03-08T11:08:46;98954.25;;;6.88;58.21
73171;BME280;61381;50.118;19.962;2024-03-08T11:13:48;98950.66;;;7.00;60.48
73171;BME280;61381;50.118;19.962;2024-03-08T11:18:49;98946.34;;;6.71;60.48
73171;BME280;61381;50.118;19.962;2024-03-08T11:23:59;98941.50;;;7.40;58.54
73171;BME280;61381;50.118;19.962;2024-03-08T11:29:35;98937.75;;;7.13;59.51
73171;BME280;61381;50.118;19.962;2024-03-08T11:34:37;98928.00;;;8.64;56.48
73171;BME280;61381;50.118;19.962;2024-03-08T11:39:39;98936.72;;;7.14;57.23
73171;BME280;61381;50.118;19.962;2024-03-08T11:44:41;98925.16;;;8.38;56.35
73171;BME280;61381;50.118;19.962;2024-03-08T11:49:42;98922.13;;;7.49;57.74
73171;BME280;61381;50.118;19.962;2024-03-08T11:54:45;98923.03;;;7.60;56.16
73171;BME280;61381;50.118;19.962;2024-03-08T11:59:51;98925.22;;;8.01;56.32
73171;BME280;61381;50.118;19.962;2024-03-08T12:04:56;98919.41;;;8.14;55.56
73171;BME280;61381;50.118;19.962;2024-03-08T12:10:18;98907.31;;;7.64;59.16
73171;BME280;61381;50.118;19.962;2024-03-08T12:15:22;98898.56;;;8.49;57.41
73171;BME280;61381;50.118;19.962;2024-03-08T12:20:25;98900.13;;;7.64;57.21
73171;BME280;61381;50.118;19.962;2024-03-08T12:25:27;98895.25;;;7.56;59.42
73171;BME280;61381;50.118;19.962;2024-03-08T12:30:31;98893.97;;;7.96;57.47
73171;BME280;61381;50.118;19.962;2024-03-08T12:35:32;98887.34;;;7.34;60.24
73171;BME280;61381;50.118;19.962;2024-03-08T12:40:33;98888.97;;;8.58;56.33
73171;BME280;61381;50.118;19.962;2024-03-08T12:45:36;98881.44;;;8.50;56.33
73171;BME280;61381;50.118;19.962;2024-03-08T12:50:37;98885.63;;;8.35;57.05
73171;BME280;61381;50.118;19.962;2024-03-08T12:55:37;98873.66;;;9.27;53.72
73171;BME280;61381;50.118;19.962;2024-03-08T13:00:40;98865.81;;;8.21;55.86
73171;BME280;61381;50.118;19.962;2024-03-08T13:05:40;98864.47;;;8.77;54.32
73171;BME280;61381;50.118;19.962;2024-03-08T13:10:42;98855.75;;;9.33;55.75
73171;BME280;61381;50.118;19.962;2024-03-08T13:15:45;98851.97;;;9.03;54.00
73171;BME280;61381;50.118;19.962;2024-03-08T13:20:45;98841.28;;;8.29;57.60
73171;BME280;61381;50.118;19.962;2024-03-08T13:25:46;98843.66;;;8.89;55.06
73171;BME280;61381;50.118;19.962;2024-03-08T13:30:49;98837.00;;;8.97;56.12
73171;BME280;61381;50.118;19.962;2024-03-08T13:35:50;98825.50;;;8.17;57.47
73171;BME280;61381;50.118;19.962;2024-03-08T13:40:51;98817.78;;;8.21;58.96
73171;BME280;61381;50.118;19.962;2024-03-08T13:45:53;98816.16;;;8.88;57.10
73171;BME280;61381;50.118;19.962;2024-03-08T13:50:54;98822.84;;;9.42;55.45
73171;BME280;61381;50.118;19.962;2024-03-08T13:55:56;98822.19;;;8.53;56.72
73171;BME280;61381;50.118;19.962;2024-03-08T14:00:58;98822.56;;;9.08;56.34
73171;BME280;61381;50.118;19.962;2024-03-08T14:05:59;98820.47;;;9.51;55.08
73171;BME280;61381;50.118;19.962;2024-03-08T14:11:00;98808.59;;;8.65;56.78
73171;BME280;61381;50.118;19.962;2024-03-08T14:16:02;98805.38;;;8.52;57.18
73171;BME280;61381;50.118;19.962;2024-03-08T14:21:03;98797.06;;;8.44;58.47
73171;BME280;61381;50.118;19.962;2024-03-08T14:26:04;98801.41;;;8.70;59.16
73171;BME280;61381;50.118;19.962;2024-03-08T14:31:06;98793.97;;;8.78;57.03
73171;BME280;61381;50.118;19.962;2024-03-08T14:36:08;98792.88;;;8.73;56.94
73171;BME280;61381;50.118;19.962;2024-03-08T14:41:09;98779.28;;;9.21;57.45
73171;BME280;61381;50.118;19.962;2024-03-08T14:46:11;98788.56;;;8.57;57.55
73171;BME280;61381;50.118;19.962;2024-03-08T14:51:12;98785.97;;;9.29;55.27
73171;BME280;61381;50.118;19.962;2024-03-08T14:56:13;98784.03;;;8.68;57.08
73171;BME280;61381;50.118;19.962;2024-03-08T15:01:16;98783.94;;;8.37;58.03
73171;BME280;61381;50.118;19.962;2024-03-08T15:06:17;98773.72;;;8.18;58.40
73171;BME280;61381;50.118;19.962;2024-03-08T15:11:18;98770.16;;;8.61;57.30
73171;BME280;61381;50.118;19.962;2024-03-08T15:16:20;98768.84;;;8.94;57.64
73171;BME280;61381;50.118;19.962;2024-03-08T15:21:21;98769.66;;;8.84;55.79
73171;BME280;61381;50.118;19.962;2024-03-08T15:26:21;98762.47;;;9.05;57.23
73171;BME280;61381;50.118;19.962;2024-03-08T15:31:24;98759.63;;;8.28;58.66
73171;BME280;61381;50.118;19.962;2024-03-08T15:36:25;98752.66;;;8.17;59.87
73171;BME280;61381;50.118;19.962;2024-03-08T15:41:25;98755.38;;;8.32;59.18
73171;BME280;61381;50.118;19.962;2024-03-08T15:46:28;98752.63;;;8.12;59.88
73171;BME280;61381;50.118;19.962;2024-03-08T15:51:29;98754.34;;;7.80;60.36
73171;BME280;61381;50.118;19.962;2024-03-08T15:56:30;98746.44;;;7.43;60.91
73171;BME280;61381;50.118;19.962;2024-03-08T16:01:32;98745.69;;;7.58;62.22
73171;BME280;61381;50.118;19.962;2024-03-08T16:06:34;98755.41;;;7.79;60.68
73171;BME280;61381;50.118;19.962;2024-03-08T16:11:35;98749.81;;;7.33;62.52
73171;BME280;61381;50.118;19.962;2024-03-08T16:16:37;98750.47;;;7.13;63.99
73171;BME280;61381;50.118;19.962;2024-03-08T16:21:38;98746.25;;;7.17;64.56
73171;BME280;61381;50.118;19.962;2024-03-08T16:26:39;98748.47;;;6.98;66.62
73171;BME280;61381;50.118;19.962;2024-03-08T16:31:42;98750.94;;;7.05;69.11
73171;BME280;61381;50.118;19.962;2024-03-08T16:36:42;98745.16;;;6.53;69.00
73171;BME280;61381;50.118;19.962;2024-03-08T16:41:43;98742.50;;;6.53;66.76
73171;BME280;61381;50.118;19.962;2024-03-08T16:46:45;98738.06;;;6.37;72.28
73171;BME280;61381;50.118;19.962;2024-03-08T16:51:46;98741.72;;;6.03;75.20
73171;BME280;61381;50.118;19.962;2024-03-08T16:56:47;98738.97;;;6.48;74.43
73171;BME280;61381;50.118;19.962;2024-03-08T17:01:49;98746.97;;;6.20;72.17
73171;BME280;61381;50.118;19.962;2024-03-08T17:06:50;98735.28;;;5.99;76.65
73171;BME280;61381;50.118;19.962;2024-03-08T17:11:51;98736.63;;;5.63;77.92
73171;BME280;61381;50.118;19.962;2024-03-08T17:16:53;98739.88;;;5.87;77.36
73171;BME280;61381;50.118;19.962;2024-03-08T17:21:54;98743.25;;;5.60;76.49
73171;BME280;61381;50.118;19.962;2024-03-08T17:26:55;98736.22;;;5.71;79.38
73171;BME280;61381;50.118;19.962;2024-03-08T17:31:57;98736.34;;;5.59;81.84
73171;BME280;61381;50.118;19.962;2024-03-08T17:36:58;98735.94;;;5.50;80.29
73171;BME280;61381;50.118;19.962;2024-03-08T17:42:01;98743.13;;;5.50;78.86
73171;BME280;61381;50.118;19.962;2024-03-08T17:47:03;98736.53;;;5.18;79.39
73171;BME280;61381;50.118;19.962;2024-03-08T17:52:05;98728.09;;;4.71;81.80
73171;BME280;61381;50.118;19.962;2024-03-08T17:57:06;98724.59;;;4.53;82.29
73171;BME280;61381;50.118;19.962;2024-03-08T18:02:08;98727.34;;;4.58;81.79
73171;BME280;61381;50.118;19.962;2024-03-08T18:07:09;98722.69;;;4.20;83.46
73171;BME280;61381;50.118;19.962;2024-03-08T18:12:09;98716.16;;;4.10;84.46
73171;BME280;61381;50.118;19.962;2024-03-08T18:17:12;98710.13;;;3.86;85.39
73171;BME280;61381;50.118;19.962;2024-03-08T18:22:13;98712.50;;;4.00;86.18
73171;BME280;61381;50.118;19.962;2024-03-08T18:27:13;98710.66;;;4.00;85.55
73171;BME280;61381;50.118;19.962;2024-03-08T18:32:16;98713.63;;;4.04;86.19
73171;BME280;61381;50.118;19.962;2024-03-08T18:37:16;98707.28;;;4.05;84.80
73171;BME280;61381;50.118;19.962;2024-03-08T18:42:17;98705.13;;;4.31;84.63
73171;BME280;61381;50.118;19.962;2024-03-08T18:47:20;98702.56;;;4.53;85.15
73171;BME280;61381;50.118;19.962;2024-03-08T18:52:21;98709.72;;;4.35;85.74
73171;BME280;61381;50.118;19.962;2024-03-08T18:57:21;98703.94;;;4.09;84.63
73171;BME280;61381;50.118;19.962;2024-03-08T19:02:24;98710.19;;;4.32;84.91
73171;BME280;61381;50.118;19.962;2024-03-08T19:07:24;98704.50;;;4.11;85.19
73171;BME280;61381;50.118;19.962;2024-03-08T19:12:25;98701.88;;;3.59;88.25
73171;BME280;61381;50.118;19.962;2024-03-08T19:17:27;98704.28;;;3.72;88.45
73171;BME280;61381;50.118;19.962;2024-03-08T19:22:28;98698.56;;;3.40;88.18
73171;BME280;61381;50.118;19.962;2024-03-08T19:27:29;98698.13;;;3.31;88.98
73171;BME280;61381;50.118;19.962;2024-03-08T19:32:31;98692.00;;;3.43;89.27
73171;BME280;61381;50.118;19.962;2024-03-08T19:37:32;98691.66;;;3.27;90.25
73171;BME280;61381;50.118;19.962;2024-03-08T19:42:33;98694.91;;;3.17;90.59
73171;BME280;61381;50.118;19.962;2024-03-08T19:47:35;98702.66;;;3.60;91.01
73171;BME280;61381;50.118;19.962;2024-03-08T19:52:36;98693.59;;;3.55;89.34
73171;BME280;61381;50.118;19.962;2024-03-08T19:57:40;98696.50;;;3.30;90.09
73171;BME280;61381;50.118;19.962;2024-03-08T20:02:43;98687.56;;;3.72;87.70
73171;BME280;61381;50.118;19.962;2024-03-08T20:07:44;98689.00;;;3.39;87.94
73171;BME280;61381;50.118;19.962;2024-03-08T20:12:45;98681.72;;;3.58;88.34
73171;BME280;61381;50.118;19.962;2024-03-08T20:17:47;98684.06;;;3.95;87.68
73171;BME280;61381;50.118;19.962;2024-03-08T20:22:49;98680.50;;;3.89;86.85
73171;BME280;61381;50.118;19.962;2024-03-08T20:27:52;98677.31;;;3.75;86.74
73171;BME280;61381;50.118;19.962;2024-03-08T20:32:56;98678.13;;;3.64;88.07
73171;BME280;61381;50.118;19.962;2024-03-08T20:37:57;98663.28;;;3.92;88.06
73171;BME280;61381;50.118;19.962;2024-03-08T20:42:58;98670.97;;;4.05;86.04
73171;BME280;61381;50.118;19.962;2024-03-08T20:48:01;98668.44;;;4.10;85.20
73171;BME280;61381;50.118;19.962;2024-03-08T20:53:02;98665.66;;;3.77;85.72
73171;BME280;61381;50.118;19.962;2024-03-08T20:58:03;98667.03;;;3.79;86.62
73171;BME280;61381;50.118;19.962;2024-03-08T21:03:07;98659.63;;;3.52;87.79
73171;BME280;61381;50.118;19.962;2024-03-08T21:08:09;98656.78;;;3.42;87.92
73171;BME280;61381;50.118;19.962;2024-03-08T21:13:10;98651.00;;;3.45;87.22
73171;BME280;61381;50.118;19.962;2024-03-08T21:18:13;98648.00;;;3.53;87.41
73171;BME280;61381;50.118;19.962;2024-03-08T21:23:14;98646.19;;;3.42;86.51
73171;BME280;61381;50.118;19.962;2024-03-08T21:28:15;98645.41;;;3.70;86.01
73171;BME280;61381;50.118;19.962;2024-03-08T21:33:17;98634.16;;;3.63;87.18
73171;BME280;61381;50.118;19.962;2024-03-08T21:38:18;98629.03;;;3.73;86.41
73171;BME280;61381;50.118;19.962;2024-03-08T21:43:19;98630.41;;;3.76;88.25
73171;BME280;61381;50.118;19.962;2024-03-08T21:48:21;98626.91;;;4.16;88.04
73171;BME280;61381;50.118;19.962;2024-03-08T21:53:22;98622.78;;;4.08;85.70
73171;BME280;61381;50.118;19.962;2024-03-08T21:58:23;98625.22;;;3.41;85.53
73171;BME280;61381;50.118;19.962;2024-03-08T22:03:25;98625.78;;;3.43;86.49
73171;BME280;61381;50.118;19.962;2024-03-08T22:08:26;98616.88;;;3.08;89.45
73171;BME280;61381;50.118;19.962;2024-03-08T22:13:27;98614.81;;;2.75;90.51
73171;BME280;61381;50.118;19.962;2024-03-08T22:18:29;98607.22;;;2.90;89.68
73171;BME280;61381;50.118;19.962;2024-03-08T22:23:30;98601.59;;;2.63;90.10
73171;BME280;61381;50.118;19.962;2024-03-08T22:28:31;98599.16;;;2.38;92.51
73171;BME280;61381;50.118;19.962;2024-03-08T22:33:33;98596.19;;;2.46;92.51
73171;BME280;61381;50.118;19.962;2024-03-08T22:38:34;98601.81;;;2.61;91.65
73171;BME280;61381;50.118;19.962;2024-03-08T22:43:35;98600.56;;;2.64;91.43
73171;BME280;61381;50.118;19.962;2024-03-08T22:48:37;98591.72;;;2.70;91.19
73171;BME280;61381;50.118;19.962;2024-03-08T22:53:38;98588.34;;;2.27;92.25
73171;BME280;61381;50.118;19.962;2024-03-08T22:58:39;98591.78;;;2.16;93.93
73171;BME280;61381;50.118;19.962;2024-03-08T23:03:41;98585.81;;;2.32;93.24
73171;BME280;61381;50.118;19.962;2024-03-08T23:08:43;98584.75;;;2.22;93.95
73171;BME280;61381;50.118;19.962;2024-03-08T23:13:43;98575.84;;;2.35;92.50
73171;BME280;61381;50.118;19.962;2024-03-08T23:18:46;98587.53;;;2.39;92.95
73171;BME280;61381;50.118;19.962;2024-03-08T23:23:46;98583.88;;;2.40;92.06
73171;BME280;61381;50.118;19.962;2024-03-08T23:28:47;98593.53;;;2.81;89.99
73171;BME280;61381;50.118;19.962;2024-03-08T23:33:49;98583.31;;;2.38;92.80
73171;BME280;61381;50.118;19.962;2024-03-08T23:38:50;98585.34;;;2.36;93.22
73171;BME280;61381;50.118;19.962;2024-03-08T23:43:51;98583.22;;;2.68;89.91
73171;BME280;61381;50.118;19.962;2024-03-08T23:48:54;98574.34;;;2.62;90.28
73171;BME280;61381;50.118;19.962;2024-03-08T23:53:54;98570.88;;;2.26;89.51
73171;BME280;61381;50.118;19.962;2024-03-08T23:58:55;98572.56;;;2.09;91.04
